createdAt,value
2019-06-18T00:00:02.985Z,18.1
2019-06-18T00:05:03.064Z,17.7
2019-06-18T00:10:02.603Z,17.8
2019-06-18T00:15:03.044Z,17.7
2019-06-18T00:20:02.571Z,17.7
2019-06-18T00:25:03.041Z,17.1
2019-06-18T00:30:02.638Z,17.0
2019-06-18T00:35:03.086Z,17.1
2019-06-18T00:40:02.637Z,17.0
2019-06-18T00:45:03.096Z,17.0
2019-06-18T00:50:02.565Z,17.1
2019-06-18T00:55:02.994Z,17.1
2019-06-18T01:00:02.528Z,17.1
2019-06-18T01:05:03.053Z,17.0
2019-06-18T01:10:02.579Z,17.1
2019-06-18T01:15:03.217Z,17.1
2019-06-18T01:20:02.706Z,16.7
2019-06-18T01:25:03.294Z,16.2
2019-06-18T01:30:03.633Z,16.2
2019-06-18T01:35:02.715Z,16.3
2019-06-18T01:40:03.420Z,16.2
2019-06-18T01:45:03.363Z,16.2
2019-06-18T01:50:03.821Z,16.3
2019-06-18T01:55:03.135Z,16.3
2019-06-18T02:00:04.512Z,16.2
2019-06-18T02:05:03.569Z,16.2
2019-06-18T02:10:03.068Z,16.2
2019-06-18T02:15:03.064Z,16.2
2019-06-18T02:20:02.922Z,16.0
2019-06-18T02:25:03.328Z,16.0
2019-06-18T02:30:06.118Z,16.0
2019-06-18T02:35:03.363Z,15.8
2019-06-18T02:40:04.119Z,16.0
2019-06-18T02:45:03.690Z,16.0
2019-06-18T02:50:03.614Z,15.8
2019-06-18T02:55:03.198Z,15.8
2019-06-18T03:00:04.427Z,15.8
2019-06-18T03:05:03.307Z,15.8
2019-06-18T03:10:03.363Z,15.8
2019-06-18T03:15:03.735Z,15.8
2019-06-18T03:20:03.710Z,15.8
2019-06-18T03:25:03.375Z,15.6
2019-06-18T03:30:04.055Z,15.3
2019-06-18T03:35:03.797Z,15.1
2019-06-18T03:40:02.616Z,15.3
2019-06-18T03:45:03.113Z,15.3
2019-06-18T03:50:04.936Z,15.1
2019-06-18T03:55:03.824Z,15.3
2019-06-18T04:00:02.900Z,15.5
2019-06-18T04:05:03.833Z,15.5
2019-06-18T04:10:02.891Z,15.6
2019-06-18T04:15:03.493Z,15.6
2019-06-18T04:20:03.349Z,15.8
2019-06-18T04:25:03.740Z,15.8
2019-06-18T04:30:03.173Z,15.6
2019-06-18T04:35:03.969Z,15.6
2019-06-18T04:40:04.032Z,15.8
2019-06-18T04:45:03.184Z,15.8
2019-06-18T04:50:02.805Z,16.0
2019-06-18T04:55:03.605Z,16.3
2019-06-18T05:00:04.188Z,16.7
2019-06-18T05:05:03.692Z,17.1
2019-06-18T05:10:03.623Z,17.3
2019-06-18T05:15:03.174Z,17.7
2019-06-18T05:20:03.198Z,17.7
2019-06-18T05:25:03.034Z,17.7
2019-06-18T05:30:04.088Z,17.7
2019-06-18T05:35:03.627Z,17.5
2019-06-18T05:40:03.930Z,17.5
2019-06-18T05:45:02.672Z,17.7
2019-06-18T05:50:03.703Z,17.8
2019-06-18T05:55:04.245Z,17.7
2019-06-18T06:00:03.791Z,18.1
2019-06-18T06:05:03.406Z,18.2
2019-06-18T06:10:02.936Z,18.6
2019-06-18T06:15:03.474Z,19.0
2019-06-18T06:20:03.435Z,19.2
2019-06-18T06:25:03.465Z,19.5
2019-06-18T06:30:03.911Z,20.0
2019-06-18T06:35:03.163Z,20.2
2019-06-18T06:40:04.279Z,20.2
2019-06-18T06:45:04.007Z,20.2
2019-06-18T06:50:04.349Z,20.7
2019-06-18T06:55:03.604Z,20.7
2019-06-18T07:00:04.063Z,21.0
2019-06-18T07:05:03.638Z,21.3
2019-06-18T07:10:07.125Z,21.5
2019-06-18T07:15:02.988Z,21.8
2019-06-18T07:20:02.984Z,22.1
2019-06-18T07:25:02.880Z,22.2
2019-06-18T07:30:04.333Z,22.7
2019-06-18T07:35:03.175Z,23.2
2019-06-18T07:40:03.245Z,24.0
2019-06-18T07:45:04.739Z,24.5
2019-06-18T07:50:13.255Z,24.5
2019-06-18T07:55:03.781Z,25.2
2019-06-18T08:00:05.194Z,25.0
2019-06-18T08:05:03.765Z,25.8
2019-06-18T08:10:03.913Z,27.1
2019-06-18T08:15:04.214Z,26.2
2019-06-18T08:20:04.048Z,26.0
2019-06-18T08:25:03.676Z,26.7
2019-06-18T08:30:03.510Z,26.7
2019-06-18T08:35:03.075Z,26.7
2019-06-18T08:40:04.084Z,27.5
2019-06-18T08:45:03.846Z,27.3
2019-06-18T08:50:03.042Z,27.3
2019-06-18T08:55:02.768Z,28.0
2019-06-18T09:00:03.769Z,28.8
2019-06-18T09:05:03.296Z,30.1
2019-06-18T09:10:02.870Z,28.5
2019-06-18T09:15:03.563Z,30.3
2019-06-18T09:20:04.048Z,29.6
2019-06-18T09:25:02.561Z,29.2
2019-06-18T09:30:03.661Z,29.5
2019-06-18T09:35:03.458Z,28.6
2019-06-18T09:40:03.113Z,29.7
2019-06-18T09:45:03.375Z,30.3
2019-06-18T09:50:03.314Z,29.7
2019-06-18T09:55:03.539Z,30.0
2019-06-18T10:00:03.270Z,28.8
2019-06-18T10:05:03.496Z,29.7
2019-06-18T10:10:03.546Z,28.3
2019-06-18T10:15:04.007Z,29.2
2019-06-18T10:20:03.599Z,31.2
2019-06-18T10:25:03.565Z,31.7
2019-06-18T10:30:06.741Z,30.8
2019-06-18T10:35:03.380Z,30.5
2019-06-18T10:40:03.775Z,30.7
2019-06-18T10:45:03.492Z,32.0
2019-06-18T10:50:03.015Z,31.8
2019-06-18T10:55:03.935Z,32.7
2019-06-18T11:00:03.508Z,30.6
2019-06-18T11:05:03.793Z,31.1
2019-06-18T11:10:03.690Z,30.7
2019-06-18T11:15:03.350Z,31.2
2019-06-18T11:20:03.102Z,31.8
2019-06-18T11:25:02.733Z,30.7
2019-06-18T11:30:04.317Z,30.5
2019-06-18T11:35:02.887Z,32.2
2019-06-18T11:40:07.829Z,31.3
2019-06-18T11:45:03.688Z,30.2
2019-06-18T11:50:03.641Z,30.6
2019-06-18T11:55:03.845Z,31.6
2019-06-18T12:00:04.720Z,31.2
2019-06-18T12:05:02.993Z,30.8
2019-06-18T12:10:03.436Z,32.2
2019-06-18T12:15:03.894Z,33.5
2019-06-18T12:20:03.449Z,32.5
2019-06-18T12:25:03.050Z,33.0
2019-06-18T12:30:03.022Z,31.7
2019-06-18T12:35:03.044Z,31.3
2019-06-18T12:40:03.064Z,32.0
2019-06-18T12:45:03.940Z,31.7
2019-06-18T12:50:04.025Z,30.2
2019-06-18T12:55:04.565Z,29.7
2019-06-18T13:00:03.256Z,31.0
2019-06-18T13:05:03.497Z,30.2
2019-06-18T13:10:03.972Z,30.5
2019-06-18T13:15:02.548Z,30.5
2019-06-18T13:20:03.271Z,30.0
2019-06-18T13:25:04.663Z,30.5
2019-06-18T13:30:03.457Z,30.1
2019-06-18T13:35:03.551Z,30.5
2019-06-18T13:40:03.305Z,30.7
2019-06-18T13:45:04.108Z,30.2
2019-06-18T13:50:04.173Z,30.3
2019-06-18T13:55:02.927Z,31.1
2019-06-18T14:00:04.287Z,31.3
2019-06-18T14:05:03.205Z,31.3
2019-06-18T14:10:03.575Z,31.2
2019-06-18T14:15:03.347Z,32.4
2019-06-18T14:20:03.480Z,31.6
2019-06-18T14:25:03.156Z,31.2
2019-06-18T14:30:04.720Z,31.2
2019-06-18T14:35:03.657Z,31.1
2019-06-18T14:40:03.303Z,32.2
2019-06-18T14:45:02.758Z,31.7
2019-06-18T14:50:03.310Z,32.5
2019-06-18T14:55:03.862Z,34.0
2019-06-18T15:00:02.449Z,31.8
2019-06-18T15:05:03.053Z,32.5
2019-06-18T15:10:03.927Z,31.7
2019-06-18T15:15:02.622Z,32.9
2019-06-18T15:20:03.096Z,32.7
2019-06-18T15:25:02.525Z,31.8
2019-06-18T15:30:03.741Z,31.7
2019-06-18T15:35:03.397Z,31.3
2019-06-18T15:40:02.889Z,31.8
2019-06-18T15:45:03.362Z,32.0
2019-06-18T15:50:03.540Z,31.6
2019-06-18T15:55:03.564Z,31.2
2019-06-18T16:00:03.133Z,31.7
2019-06-18T16:05:03.150Z,31.2
2019-06-18T16:10:03.020Z,30.8
2019-06-18T16:15:02.569Z,30.8
2019-06-18T16:20:03.097Z,30.7
2019-06-18T16:25:13.051Z,31.2
2019-06-18T16:30:03.384Z,30.7
2019-06-18T16:35:03.736Z,30.8
2019-06-18T16:40:03.435Z,31.6
2019-06-18T16:45:03.502Z,31.8
2019-06-18T16:50:03.116Z,31.0
2019-06-18T16:55:02.765Z,30.0
2019-06-18T17:00:03.293Z,28.7
2019-06-18T17:05:02.914Z,28.3
2019-06-18T17:10:03.267Z,28.2
2019-06-18T17:15:03.011Z,29.0
2019-06-18T17:20:02.567Z,30.2
2019-06-18T17:25:03.001Z,28.8
2019-06-18T17:30:03.794Z,29.7
2019-06-18T17:35:02.658Z,29.1
2019-06-18T17:40:03.207Z,29.0
2019-06-18T17:45:03.112Z,28.8
2019-06-18T17:50:03.241Z,29.2
2019-06-18T17:55:02.878Z,28.8
2019-06-18T18:00:03.470Z,28.1
2019-06-18T18:05:03.116Z,28.0
2019-06-18T18:10:03.039Z,27.7
2019-06-18T18:15:02.714Z,27.7
2019-06-18T18:20:03.610Z,27.5
2019-06-18T18:25:03.263Z,27.3
2019-06-18T18:30:03.528Z,27.2
2019-06-18T18:35:03.357Z,27.2
2019-06-18T18:40:03.011Z,27.2
2019-06-18T18:45:02.630Z,27.3
2019-06-18T18:50:03.296Z,27.2
2019-06-18T18:55:03.303Z,26.7
2019-06-18T19:00:04.205Z,26.2
2019-06-18T19:05:03.532Z,26.1
2019-06-18T19:10:03.320Z,26.1
2019-06-18T19:15:03.350Z,26.0
2019-06-18T19:20:03.209Z,25.7
2019-06-18T19:25:03.221Z,25.7
2019-06-18T19:30:02.829Z,25.6
2019-06-18T19:35:03.307Z,25.6
2019-06-18T19:40:02.846Z,25.3
2019-06-18T19:45:03.528Z,25.3
2019-06-18T19:50:03.029Z,25.0
2019-06-18T19:55:03.174Z,25.1
2019-06-18T20:00:03.547Z,24.7
2019-06-18T20:05:03.201Z,24.7
2019-06-18T20:10:02.757Z,25.0
2019-06-18T20:15:03.262Z,24.6
2019-06-18T20:20:03.241Z,24.6
2019-06-18T20:25:02.848Z,24.5
2019-06-18T20:30:03.467Z,24.2
2019-06-18T20:35:03.093Z,24.0
2019-06-18T20:40:02.778Z,23.7
2019-06-18T20:45:03.349Z,23.7
2019-06-18T20:50:03.274Z,23.7
2019-06-18T20:55:03.457Z,23.2
2019-06-18T21:00:03.022Z,23.2
2019-06-18T21:05:02.563Z,23.1
2019-06-18T21:10:03.485Z,23.0
2019-06-18T21:15:03.077Z,22.7
2019-06-18T21:20:02.707Z,22.6
2019-06-18T21:25:03.216Z,22.3
2019-06-18T21:30:03.607Z,22.3
2019-06-18T21:35:03.380Z,22.2
2019-06-18T21:40:03.932Z,22.1
2019-06-18T21:45:02.772Z,22.0
2019-06-18T21:50:03.308Z,22.0
2019-06-18T21:55:03.663Z,21.8
2019-06-18T22:00:03.636Z,21.7
2019-06-18T22:05:04.033Z,21.5
2019-06-18T22:10:03.166Z,21.3
2019-06-18T22:15:03.778Z,21.3
2019-06-18T22:20:03.646Z,21.2
2019-06-18T22:25:03.506Z,21.2
2019-06-18T22:30:02.989Z,21.2
2019-06-18T22:35:03.916Z,21.0
2019-06-18T22:40:03.414Z,20.8
2019-06-18T22:45:03.627Z,20.8
2019-06-18T22:50:04.119Z,20.7
2019-06-18T22:55:02.925Z,20.7
2019-06-18T23:00:08.761Z,20.7
2019-06-18T23:05:03.179Z,20.7
2019-06-18T23:10:03.595Z,20.7
2019-06-18T23:15:03.223Z,20.6
2019-06-18T23:20:03.149Z,20.3
2019-06-18T23:25:02.802Z,20.3
2019-06-18T23:30:03.321Z,20.2
2019-06-18T23:35:03.148Z,20.2
2019-06-18T23:40:03.099Z,20.2
2019-06-18T23:45:03.316Z,20.1
2019-06-18T23:50:03.706Z,20.1
2019-06-18T23:55:03.513Z,20.0
